Hastings Natural History Reservation, California Weather observations

Data are for 10 minute period ending at time listed.
 Day   Time   Solar   Ave.   Ave.  Ave.  Vector  Max.   Baro.   Total    
  of    of     Rad.   Air    Rel.  Wind   Wind   Wind  Press.  Precip.   
Year   Day            Temp.  Hum.  Speed  Dir.   Gust                    
2016   (PST)  Kw/m2    F      %     mph   deg.    mph    mb.     in.     
-------------------------------------------------------------------------
 271    6:40   0.01   56.7    31    0.0   262     0.7   952.1    0.00 
 271    6:50   0.01   57.0    31    0.7   242     1.8   952.2    0.00 
 271    7:00   0.02   57.3    32    0.3   237     1.4   952.2    0.00 
 271    7:10   0.03   57.9    32    0.1   250     1.2   952.3    0.00 
 271    7:20   0.03   59.0    31    0.1   146     1.4   952.3    0.00 
 271    7:30   0.03   60.8    30    0.5    74     3.7   952.3    0.00 
 271    7:40   0.03   62.5    28    1.3    79     3.8   952.3    0.00 
 271    7:50   0.03   65.0    24    1.7    75     4.2   952.2    0.00 
 271    8:00   0.16   67.1    23    0.3    86     3.0   952.2    0.00 
 271    8:10   0.27   69.7    22    0.2    71     1.1   952.1    0.00 
 271    8:20   0.30   74.1    19    0.0    87     0.5   952.1    0.00 
 271    8:30   0.32   77.8    18    0.0     0     0.0   952.0    0.00 
 271    8:40   0.35   79.9    16    0.0     0     0.0   951.9    0.00 
 271    8:50   0.39   82.7    13    0.1    70     1.1   951.7    0.00 
 271    9:00   0.27   85.2    10    0.3   148     1.5   951.7    0.00 
 271    9:10   0.07   87.4    10    1.0   206     2.6   951.7    0.00 
 271    9:20   0.09   88.5    10    2.2   236     4.3   951.8    0.00 
 271    9:30   0.23   87.7     9    1.6   224     4.5   951.7    0.00 
 271    9:40   0.45   87.9     9    3.3   239     8.0   951.7    0.00 
 271    9:50   0.47   88.8     8    3.0   244     6.4   951.5    0.00 
 271   10:00   0.57   89.6     8    2.2   292     5.6   951.4    0.00 
 271   10:10   0.60   91.2     8    2.7     6    10.4   951.4    0.00 
 271   10:20   0.58   91.9     8    3.6   299     7.3   951.4    0.00 
 271   10:30   0.63   91.6     8    2.6   243     6.9   951.5    0.00 
 271   10:40   0.65   93.1     7    1.9   346     7.0   951.5    0.00 
 271   10:50   0.67   93.6     7    2.0   258     6.3   951.4    0.00 
 271   11:00   0.68   93.9     7    2.1   270     7.4   951.3    0.00 
 271   11:10   0.69   93.9     7    3.1   284     9.6   951.2    0.00 
 271   11:20   0.70   93.8     7    2.6   299     6.4   951.1    0.00 
 271   11:30   0.72   93.5     7    3.4   241     9.4   950.9    0.00 
 271   11:40   0.72   94.1     6    3.6   258    10.5   950.9    0.00 
 271   11:50   0.73   94.1     7    3.0   282     9.3   950.7    0.00 
 271   12:00   0.73   95.1     6    3.2   268    11.5   950.6    0.00 
 271   12:10   0.73   94.6     6    3.9   251    10.5   950.4    0.00 
 271   12:20   0.73   96.1     7    3.2   276    11.5   950.3    0.00 
 271   12:30   0.73   96.4     7    3.5    11    10.2   950.1    0.00 
 271   12:40   0.73   95.7     7    4.7   271    13.3   950.0    0.00 
 271   12:50   0.72   95.3     7    3.9   283     9.9   949.9    0.00 
 271   13:00   0.71   95.8     7    2.2   339    10.1   949.9    0.00 
 271   13:10   0.70   95.3     7    5.0   253    14.2   949.7    0.00 
 271   13:20   0.70   94.2     7    5.7   248    16.8   949.6    0.00 
 271   13:30   0.68   94.7     7    4.2   254    12.4   949.6    0.00 
 271   13:40   0.67   96.0     7    2.4   304     8.5   949.6    0.00 
 271   13:50   0.66   95.9     7    3.6   354     8.6   949.6    0.00 
 271   14:00   0.65   96.1     6    3.1   292     8.3   949.6    0.00 
 271   14:10   0.63   96.3     7    2.6   340    10.7   949.6    0.00 
 271   14:20   0.61   95.4     7    4.0   262    10.2   949.6    0.00 
 271   14:30   0.59   94.2     7    4.1   253    10.7   949.6    0.00 
 271   14:40   0.57   93.5     8    4.8   251    13.5   949.5    0.00 
 271   14:50   0.55   92.9     8    5.5   250    13.6   949.5    0.00 
 271   15:00   0.52   92.9     8    4.5   244    10.9   949.6    0.00 
 271   15:10   0.50   92.5     8    4.4   247    11.1   949.6    0.00 
 271   15:20   0.47   92.5     8    5.1   244    10.7   949.6    0.00 
 271   15:30   0.45   92.0     8    3.6   256    10.9   949.5    0.00 
 271   15:40   0.42   92.4     8    2.6   275     7.3   949.5    0.00 
 271   15:50   0.39   92.6     8    2.9   246     8.3   949.5    0.00 
 271   16:00   0.36   90.4     8    4.2   246    10.2   949.6    0.00 
 271   16:10   0.33   89.8     8    4.3   250     9.7   949.5    0.00 
 271   16:20   0.30   89.4     9    4.1   246    10.7   949.5    0.00 
 271   16:30   0.27   89.2     9    3.9   246     8.0   949.5    0.00 
 271   16:40   0.23   88.4     8    4.0   250     8.3   949.6    0.00 
 271   16:50   0.20   87.7     8    3.5   247     8.0   949.6    0.00 
 271   17:00   0.17   86.6     8    4.2   247     8.9   949.7    0.00 
 271   17:10   0.13   85.8     8    3.2   247     6.6   949.8    0.00 
 271   17:20   0.10   84.9     8    1.9   261     6.4   949.8    0.00 
 271   17:30   0.06   84.5     8    1.6   273     4.2   949.7    0.00 
 271   17:40   0.01   82.2     9    1.5   220     3.4   949.7    0.00 
 271   17:50   0.00   79.4    10    0.3    55     1.5   949.6    0.00 
 271   18:00   0.00   76.2    13    1.6    50     2.2   949.5    0.00 
 271   18:10   0.00   74.1    13    2.3    58     4.7   949.3    0.00 
 271   18:20   0.00   74.9    13    2.8    72     4.2   949.3    0.00 
 271   18:30   0.00   73.5    14    2.4    72     4.2   949.3    0.00 
 271   18:40   0.00   70.3    16    1.4    45     2.5   949.2    0.00 
 271   18:50   0.00   68.8    17    1.5    48     2.5   949.2    0.00 
 271   19:00   0.00   67.9    17    0.8    35     2.2   949.2    0.00 
 271   19:10   0.00   67.1    18    0.2   119     2.3   949.3    0.00 
 271   19:20   0.00   66.4    18    0.5    94     2.6   949.5    0.00 
 271   19:30   0.00   66.0    17    0.4   243     1.1   949.5    0.00 
 271   19:40   0.00   65.1    18    0.4   238     1.5   949.6    0.00 
 271   19:50   0.00   64.3    18    0.6   244     1.8   949.7    0.00 
 271   20:00   0.00   63.7    18    0.3   245     1.7   949.9    0.00 
 271   20:10   0.00   63.2    18    0.3   158     3.5   949.9    0.00 
 271   20:20   0.00   62.6    19    0.6   247     2.3   950.1    0.00 
 271   20:30   0.00   62.0    19    0.7   240     2.3   950.1    0.00 
 271   20:40   0.00   61.4    20    0.6   253     2.2   950.1    0.00 
 271   20:50   0.00   61.2    20    0.3    57     1.5   950.1    0.00 
 271   21:00   0.00   61.1    20    0.1    64     0.7   950.1    0.00 
 271   21:10   0.00   60.8    21    0.5    47     1.8   950.1    0.00 
 271   21:20   0.00   60.6    21    0.3    58     1.5   950.2    0.00 
 271   21:30   0.00   60.1    21    0.1    46     1.0   950.2    0.00 
 271   21:40   0.00   59.6    22    0.1    51     1.8   950.3    0.00 
 271   21:50   0.00   59.2    22    1.0    58     1.9   950.3    0.00 
 271   22:00   0.00   59.0    22    0.1    44     1.0   950.2    0.00 
 271   22:10   0.00   58.6    23    0.1    54     0.9   950.3    0.00 
 271   22:20   0.00   58.2    23    0.4    52     1.4   950.3    0.00 
 271   22:30   0.00   58.2    23    0.2    61     1.0   950.4    0.00 
 271   22:40   0.00   57.9    23    0.1    27     0.9   950.4    0.00 
 271   22:50   0.00   57.6    23    0.5    57     1.4   950.4    0.00 
 271   23:00   0.00   57.5    23    0.2    76     1.0   950.4    0.00 
 271   23:10   0.00   57.3    24    0.0    51     0.4   950.4    0.00 
 271   23:20   0.00   57.1    24    0.5    50     1.2   950.4    0.00 
 271   23:30   0.00   57.2    24    0.2    57     1.0   950.4    0.00 
 271   23:40   0.00   57.1    24    0.2    52     1.1   950.4    0.00 
 271   23:50   0.00   57.1    24    0.1    21     0.9   950.4    0.00 
 272    0:00   0.00   57.1    24    0.2   258     1.7   950.4    0.00 
 272    0:10   0.00   56.8    24    0.0   133     0.6   950.3    0.00 
 272    0:20   0.00   56.4    24    0.1    35     0.9   950.3    0.00 
 272    0:30   0.00   56.5    24    0.0    26     0.5   950.3    0.00 
 272    0:40   0.00   56.7    25    0.2    57     0.9   950.3    0.00 
 272    0:50   0.00   56.8    25    0.2    58     1.0   950.3    0.00 
 272    1:00   0.00   56.9    26    0.0     0     0.0   950.4    0.00 
 272    1:10   0.00   56.8    26    0.1    46     0.9   950.4    0.00 
 272    1:20   0.00   56.8    26    0.0    47     0.7   950.4    0.00 
 272    1:30   0.00   56.6    27    0.1    35     1.1   950.3    0.00 
 272    1:40   0.00   56.5    28    0.0    30     0.6   950.3    0.00 
 272    1:50   0.00   56.4    28    0.1    20     0.7   950.2    0.00 
 272    2:00   0.00   56.3    28    0.3    26     1.2   950.1    0.00 
 272    2:10   0.00   56.3    29    0.0     0     0.0   950.0    0.00 
 272    2:20   0.00   56.3    30    0.0     0     0.0   949.9    0.00 
 272    2:30   0.00   56.4    30    0.0    28     0.6   949.8    0.00 
 272    2:40   0.00   56.4    30    0.6   242     1.8   949.8    0.00 
 272    2:50   0.00   56.3    30    0.4   244     1.7   949.8    0.00 
 272    3:00   0.00   56.0    31    0.5   244     2.0   949.7    0.00 
 272    3:10   0.00   56.1    32    0.1   248     0.9   949.8    0.00 
 272    3:20   0.00   56.3    32    0.2   253     1.1   949.8    0.00 
 272    3:30   0.00   56.3    33    0.3   235     1.7   949.8    0.00 
 272    3:40   0.00   56.3    33    0.1   243     1.2   949.9    0.00 
 272    3:50   0.00   56.2    34    0.1   245     0.7   949.9    0.00 
 272    4:00   0.00   56.4    34    0.0    29     0.5   949.8    0.00 
 272    4:10   0.00   56.5    34    0.0     0     0.0   949.9    0.00 
 272    4:20   0.00   56.4    35    0.0     0     0.0   950.0    0.00 
 272    4:30   0.00   56.3    35    0.1    46     0.9   950.1    0.00 
 272    4:40   0.00   56.4    35    0.2    58     0.9   950.1    0.00 
 272    4:50   0.00   56.3    36    0.1    42     1.1   950.1    0.00 
 272    5:00   0.00   56.3    36    0.0    36     0.7   950.1    0.00 
 272    5:10   0.00   56.3    36    0.0    44     0.9   950.1    0.00 
 272    5:20   0.00   56.3    36    0.1    43     0.9   950.1    0.00 
 272    5:30   0.00   56.2    36    0.0    29     0.5   950.1    0.00 
 272    5:40   0.00   56.2    36    0.0   206     1.0   950.1    0.00 
 272    5:50   0.00   56.0    37    0.0     0     0.0   950.3    0.00 
 272    6:00   0.00   56.0    36    0.0   239     0.7   950.3    0.00 
 272    6:10   0.00   56.1    36    0.0    43     0.6   950.4    0.00 
 272    6:20   0.00   56.6    36    0.0     0     0.0   950.4    0.00 
 272    6:30   0.01   56.8    36    0.0     0     0.0   950.5    0.00 

Return to Hastings Natural History Reservation graphs page.


Western Regional Climate Center,wrcc@dri.edu